createdAt,value
2019-06-01T00:00:18.448Z,0.00
2019-06-01T00:01:18.521Z,0.00
2019-06-01T00:02:18.444Z,0.00
2019-06-01T00:03:18.413Z,0.00
2019-06-01T00:04:18.399Z,0.00
2019-06-01T00:05:18.405Z,0.00
2019-06-01T00:06:18.432Z,0.00
2019-06-01T00:07:18.385Z,0.00
2019-06-01T00:08:18.362Z,0.00
2019-06-01T00:09:18.391Z,0.00
2019-06-01T00:10:18.338Z,0.00
2019-06-01T00:11:18.354Z,0.00
2019-06-01T00:12:18.332Z,0.00
2019-06-01T00:13:18.320Z,0.00
2019-06-01T00:14:18.309Z,0.00
2019-06-01T00:15:18.283Z,0.00
2019-06-01T00:16:18.283Z,0.00
2019-06-01T00:17:18.257Z,0.00
2019-06-01T00:18:18.260Z,0.00
2019-06-01T00:19:18.256Z,0.00
2019-06-01T00:20:18.234Z,0.00
2019-06-01T00:21:18.235Z,0.00
2019-06-01T00:22:18.221Z,0.00
2019-06-01T00:23:18.193Z,0.00
2019-06-01T00:24:18.190Z,0.00
2019-06-01T00:25:18.181Z,0.00
2019-06-01T00:26:18.177Z,0.00
2019-06-01T00:27:18.152Z,0.00
2019-06-01T00:28:18.139Z,0.00
2019-06-01T00:29:18.151Z,0.00
2019-06-01T00:30:26.499Z,0.00
2019-06-01T00:31:19.124Z,0.00
2019-06-01T00:32:18.102Z,0.00
2019-06-01T00:33:18.090Z,0.00
2019-06-01T00:34:18.088Z,0.00
2019-06-01T00:35:18.065Z,0.00
2019-06-01T00:36:18.078Z,0.00
2019-06-01T00:37:18.043Z,0.00
2019-06-01T00:38:18.029Z,0.00
2019-06-01T00:39:18.022Z,0.00
2019-06-01T00:40:18.021Z,0.00
2019-06-01T00:41:18.012Z,0.00
2019-06-01T00:42:18.015Z,0.00
2019-06-01T00:43:17.980Z,0.00
2019-06-01T00:44:17.976Z,0.00
2019-06-01T00:45:17.957Z,0.00
2019-06-01T00:46:17.945Z,0.00
2019-06-01T00:47:17.950Z,0.00
2019-06-01T00:48:17.919Z,0.00
2019-06-01T00:49:17.909Z,0.00
2019-06-01T00:50:17.934Z,0.00
2019-06-01T00:51:17.899Z,0.00
2019-06-01T00:52:17.912Z,0.00
2019-06-01T00:53:17.868Z,0.00
2019-06-01T00:54:17.860Z,0.00
2019-06-01T00:55:17.843Z,0.00
2019-06-01T00:56:17.830Z,0.00
2019-06-01T00:57:17.840Z,0.00
2019-06-01T00:58:17.814Z,0.00
2019-06-01T00:59:17.801Z,0.00
2019-06-01T01:00:17.797Z,0.00
2019-06-01T01:01:17.775Z,0.00
2019-06-01T01:02:17.779Z,0.00
2019-06-01T01:03:17.760Z,0.00
2019-06-01T01:04:17.752Z,0.00
2019-06-01T01:05:17.746Z,0.00
2019-06-01T01:06:17.728Z,0.00
2019-06-01T01:07:17.729Z,0.00
2019-06-01T01:08:17.702Z,0.00
2019-06-01T01:09:17.686Z,0.00
2019-06-01T01:10:17.686Z,0.00
2019-06-01T01:11:17.671Z,0.00
2019-06-01T01:12:17.683Z,0.00
2019-06-01T01:13:17.643Z,0.00
2019-06-01T01:14:17.634Z,0.00
2019-06-01T01:15:17.637Z,0.00
2019-06-01T01:16:17.617Z,0.00
2019-06-01T01:17:17.606Z,0.00
2019-06-01T01:18:17.609Z,0.00
2019-06-01T01:19:17.592Z,0.00
2019-06-01T01:20:17.565Z,0.00
2019-06-01T01:21:17.556Z,0.00
2019-06-01T01:22:17.550Z,0.00
2019-06-01T01:23:17.559Z,0.00
2019-06-01T01:24:17.530Z,0.00
2019-06-01T01:25:17.519Z,0.00
2019-06-01T01:26:17.507Z,0.00
2019-06-01T01:27:17.499Z,0.00
2019-06-01T01:28:17.518Z,0.00
2019-06-01T01:29:17.478Z,0.00
2019-06-01T01:30:17.460Z,0.00
2019-06-01T01:31:17.447Z,0.00
2019-06-01T01:32:17.433Z,0.00
2019-06-01T01:33:17.442Z,0.00
2019-06-01T01:34:17.414Z,0.00
2019-06-01T01:35:17.405Z,0.00
2019-06-01T01:36:17.398Z,0.00
2019-06-01T01:37:17.391Z,0.00
2019-06-01T01:38:17.414Z,0.00
2019-06-01T01:39:17.360Z,0.00
2019-06-01T01:40:17.349Z,0.00
2019-06-01T01:41:17.343Z,0.00
2019-06-01T01:42:17.326Z,0.00
2019-06-01T01:43:17.336Z,0.00
2019-06-01T01:44:17.323Z,0.00
2019-06-01T01:45:17.291Z,0.00
2019-06-01T01:46:17.285Z,0.00
2019-06-01T01:47:17.279Z,0.00
2019-06-01T01:48:17.286Z,0.00
2019-06-01T01:49:17.262Z,0.00
2019-06-01T01:50:17.243Z,0.00
2019-06-01T01:51:17.265Z,0.00
2019-06-01T01:52:17.214Z,0.00
2019-06-01T01:53:17.203Z,0.00
2019-06-01T01:54:17.218Z,0.00
2019-06-01T01:55:17.186Z,0.00
2019-06-01T01:56:17.180Z,0.00
2019-06-01T01:57:17.170Z,0.00
2019-06-01T01:58:17.185Z,0.00
2019-06-01T01:59:17.156Z,0.00
2019-06-01T02:00:17.129Z,0.00
2019-06-01T02:01:22.575Z,0.00
2019-06-01T02:02:18.106Z,0.00
2019-06-01T02:03:17.100Z,0.00
2019-06-01T02:04:17.108Z,0.00
2019-06-01T02:05:17.071Z,0.00
2019-06-01T02:06:17.069Z,0.00
2019-06-01T02:07:17.085Z,0.00
2019-06-01T02:08:17.046Z,0.00
2019-06-01T02:09:17.067Z,0.00
2019-06-01T02:10:17.021Z,0.00
2019-06-01T02:11:17.008Z,0.00
2019-06-01T02:12:17.008Z,0.00
2019-06-01T02:13:16.985Z,0.00
2019-06-01T02:14:17.003Z,0.00
2019-06-01T02:15:16.968Z,0.00
2019-06-01T02:16:16.969Z,0.00
2019-06-01T02:17:16.948Z,0.00
2019-06-01T02:18:16.930Z,0.00
2019-06-01T02:19:16.937Z,0.00
2019-06-01T02:20:16.916Z,0.00
2019-06-01T02:21:16.902Z,0.00
2019-06-01T02:22:16.895Z,0.00
2019-06-01T02:23:16.876Z,0.00
2019-06-01T02:24:16.883Z,0.00
2019-06-01T02:25:16.854Z,0.00
2019-06-01T02:26:16.843Z,0.00
2019-06-01T02:27:16.855Z,0.00
2019-06-01T02:28:16.826Z,0.00
2019-06-01T02:29:16.831Z,0.00
2019-06-01T02:30:16.818Z,0.00
2019-06-01T02:31:16.790Z,0.00
2019-06-01T02:32:16.775Z,0.00
2019-06-01T02:33:16.814Z,0.00
2019-06-01T02:34:16.776Z,0.00
2019-06-01T02:35:16.766Z,0.00
2019-06-01T02:36:16.741Z,0.00
2019-06-01T02:37:16.721Z,0.00
2019-06-01T02:38:16.717Z,0.00
2019-06-01T02:39:16.732Z,0.00
2019-06-01T02:40:16.698Z,0.00
2019-06-01T02:41:16.688Z,0.00
2019-06-01T02:42:16.673Z,0.00
2019-06-01T02:43:16.665Z,0.00
2019-06-01T02:44:16.660Z,0.00
2019-06-01T02:45:16.644Z,0.00
2019-06-01T02:46:16.627Z,0.00
2019-06-01T02:47:16.625Z,0.00
2019-06-01T02:48:16.607Z,0.00
2019-06-01T02:49:16.610Z,0.00
2019-06-01T02:50:16.594Z,0.00
2019-06-01T02:51:16.578Z,0.00
2019-06-01T02:52:16.567Z,0.00
2019-06-01T02:53:16.555Z,0.00
2019-06-01T02:54:16.560Z,0.00
2019-06-01T02:55:16.530Z,0.00
2019-06-01T02:56:16.513Z,0.00
2019-06-01T02:57:16.503Z,0.00
2019-06-01T02:58:16.493Z,0.00
2019-06-01T02:59:16.501Z,0.00
2019-06-01T03:00:16.505Z,0.00
2019-06-01T03:01:16.472Z,0.00
2019-06-01T03:02:16.453Z,0.00
2019-06-01T03:03:16.441Z,0.00
2019-06-01T03:04:16.453Z,0.00
2019-06-01T03:05:16.433Z,0.00
2019-06-01T03:06:16.413Z,0.00
2019-06-01T03:07:16.401Z,0.00
2019-06-01T03:08:16.386Z,0.00
2019-06-01T03:09:16.394Z,0.00
2019-06-01T03:10:16.370Z,0.00
2019-06-01T03:11:16.357Z,0.00
2019-06-01T03:12:16.348Z,0.00
2019-06-01T03:13:16.340Z,0.00
2019-06-01T03:14:16.324Z,0.00
2019-06-01T03:15:16.332Z,0.00
2019-06-01T03:16:16.296Z,0.00
2019-06-01T03:17:16.286Z,5.62
2019-06-01T03:18:16.279Z,5.62
2019-06-01T03:19:16.271Z,5.62
2019-06-01T03:20:16.274Z,5.62
2019-06-01T03:21:16.241Z,5.62
2019-06-01T03:22:16.246Z,5.62
2019-06-01T03:23:16.230Z,5.62
2019-06-01T03:24:16.219Z,5.62
2019-06-01T03:25:16.219Z,5.62
2019-06-01T03:26:16.193Z,11.25
2019-06-01T03:27:16.185Z,11.25
2019-06-01T03:28:16.166Z,11.25
2019-06-01T03:29:16.156Z,11.25
2019-06-01T03:30:16.174Z,11.25
2019-06-01T03:31:16.139Z,11.25
2019-06-01T03:32:34.436Z,16.88
2019-06-01T03:33:17.122Z,16.88
2019-06-01T03:34:16.109Z,16.88
2019-06-01T03:35:16.106Z,16.88
2019-06-01T03:36:16.096Z,22.50
2019-06-01T03:37:16.083Z,22.50
2019-06-01T03:38:16.062Z,22.50
2019-06-01T03:39:16.050Z,28.12
2019-06-01T03:40:23.735Z,28.12
2019-06-01T03:41:17.024Z,28.12
2019-06-01T03:42:16.015Z,28.12
2019-06-01T03:43:16.006Z,33.75
2019-06-01T03:44:16.003Z,33.75
2019-06-01T03:45:16.002Z,33.75
2019-06-01T03:46:15.975Z,39.38
2019-06-01T03:47:15.966Z,39.38
2019-06-01T03:48:15.946Z,39.38
2019-06-01T03:49:15.940Z,45.00
2019-06-01T03:50:15.942Z,45.00
2019-06-01T03:51:15.919Z,50.62
2019-06-01T03:52:15.914Z,56.25
2019-06-01T03:53:15.893Z,50.62
2019-06-01T03:54:15.887Z,56.25
2019-06-01T03:55:15.892Z,61.88
2019-06-01T03:56:15.866Z,67.50
2019-06-01T03:57:15.857Z,73.12
2019-06-01T03:58:15.845Z,78.75
2019-06-01T03:59:15.847Z,84.38
2019-06-01T04:00:15.832Z,78.75
2019-06-01T04:01:15.806Z,84.38
2019-06-01T04:02:15.797Z,90.00
2019-06-01T04:03:15.788Z,90.00
2019-06-01T04:04:15.803Z,95.62
2019-06-01T04:05:15.795Z,106.88
2019-06-01T04:06:15.758Z,106.88
2019-06-01T04:07:15.741Z,106.88
2019-06-01T04:08:15.730Z,112.50
2019-06-01T04:09:15.727Z,112.50
2019-06-01T04:10:15.731Z,118.12
2019-06-01T04:11:15.702Z,140.62
2019-06-01T04:12:15.693Z,191.25
2019-06-01T04:13:15.673Z,258.75
2019-06-01T04:14:15.665Z,309.38
2019-06-01T04:15:16.937Z,348.75
2019-06-01T04:16:15.649Z,405.00
2019-06-01T04:17:15.631Z,495.00
2019-06-01T04:18:15.622Z,489.38
2019-06-01T04:19:15.613Z,438.75
2019-06-01T04:20:15.620Z,410.62
2019-06-01T04:21:15.594Z,388.12
2019-06-01T04:22:15.599Z,427.50
2019-06-01T04:23:15.568Z,444.38
2019-06-01T04:24:15.552Z,461.25
2019-06-01T04:25:15.564Z,466.88
2019-06-01T04:26:15.539Z,433.12
2019-06-01T04:27:15.525Z,410.62
2019-06-01T04:28:15.509Z,348.75
2019-06-01T04:29:15.498Z,270.00
2019-06-01T04:30:15.491Z,258.75
2019-06-01T04:31:15.496Z,258.75
2019-06-01T04:32:15.474Z,253.12
2019-06-01T04:33:15.467Z,241.88
2019-06-01T04:34:15.448Z,241.88
2019-06-01T04:35:15.551Z,258.75
2019-06-01T04:36:15.485Z,258.75
2019-06-01T04:37:15.443Z,264.38
2019-06-01T04:38:15.403Z,264.38
2019-06-01T04:39:15.394Z,264.38
2019-06-01T04:40:15.385Z,270.00
2019-06-01T04:41:15.385Z,270.00
2019-06-01T04:42:15.364Z,264.38
2019-06-01T04:43:15.351Z,258.75
2019-06-01T04:44:18.158Z,264.38
2019-06-01T04:45:15.350Z,270.00
2019-06-01T04:46:15.331Z,264.38
2019-06-01T04:47:15.309Z,270.00
2019-06-01T04:48:15.291Z,270.00
2019-06-01T04:49:15.285Z,275.62
2019-06-01T04:50:15.272Z,286.88
2019-06-01T04:51:15.275Z,292.50
2019-06-01T04:52:15.336Z,298.12
2019-06-01T04:53:15.243Z,298.12
2019-06-01T04:54:16.032Z,292.50
2019-06-01T04:55:15.255Z,286.88
2019-06-01T04:56:15.345Z,286.88
2019-06-01T04:57:15.220Z,298.12
2019-06-01T04:58:15.207Z,292.50
2019-06-01T04:59:15.492Z,281.25
2019-06-01T05:00:26.044Z,281.25
2019-06-01T05:01:16.167Z,275.62
2019-06-01T05:02:15.280Z,275.62
2019-06-01T05:03:15.452Z,264.38
2019-06-01T05:04:15.525Z,258.75
2019-06-01T05:05:15.480Z,264.38
2019-06-01T05:06:15.506Z,264.38
2019-06-01T05:07:15.492Z,270.00
2019-06-01T05:08:15.618Z,270.00
2019-06-01T05:09:15.728Z,270.00
2019-06-01T05:10:16.095Z,292.50
2019-06-01T05:11:15.678Z,298.12
2019-06-01T05:12:15.560Z,303.75
2019-06-01T05:13:15.653Z,309.38
2019-06-01T05:14:16.569Z,309.38
2019-06-01T05:15:16.121Z,309.38
2019-06-01T05:16:16.476Z,292.50
2019-06-01T05:17:16.574Z,292.50
2019-06-01T05:18:18.294Z,298.12
2019-06-01T05:19:16.426Z,303.75
2019-06-01T05:20:14.944Z,309.38
2019-06-01T05:21:15.243Z,315.00
2019-06-01T05:22:14.939Z,337.50
2019-06-01T05:23:14.918Z,348.75
2019-06-01T05:24:14.907Z,360.00
2019-06-01T05:25:15.322Z,365.62
2019-06-01T05:26:15.131Z,360.00
2019-06-01T05:27:15.239Z,354.38
2019-06-01T05:28:15.321Z,354.38
2019-06-01T05:29:15.704Z,371.25
2019-06-01T05:30:15.696Z,371.25
2019-06-01T05:31:23.030Z,388.12
2019-06-01T05:32:16.752Z,393.75
2019-06-01T05:33:32.022Z,416.25
2019-06-01T05:34:15.960Z,427.50
2019-06-01T05:35:15.826Z,433.12
2019-06-01T05:36:16.156Z,433.12
2019-06-01T05:37:14.778Z,444.38
2019-06-01T05:38:14.757Z,466.88
2019-06-01T05:39:14.745Z,483.75
2019-06-01T05:40:14.872Z,483.75
2019-06-01T05:41:15.031Z,495.00
2019-06-01T05:42:14.845Z,495.00
2019-06-01T05:43:17.532Z,483.75
2019-06-01T05:44:14.943Z,483.75
2019-06-01T05:45:15.125Z,461.25
2019-06-01T05:46:15.987Z,461.25
2019-06-01T05:47:14.673Z,461.25
2019-06-01T05:48:22.598Z,461.25
2019-06-01T05:49:16.440Z,466.88
2019-06-01T05:50:14.621Z,455.62
2019-06-01T05:51:16.860Z,444.38
2019-06-01T05:52:14.609Z,433.12
2019-06-01T05:53:14.625Z,427.50
2019-06-01T05:54:14.638Z,416.25
2019-06-01T05:55:14.731Z,405.00
2019-06-01T05:56:14.801Z,382.50
2019-06-01T05:57:14.735Z,388.12
2019-06-01T05:58:15.140Z,388.12
2019-06-01T05:59:14.525Z,371.25
2019-06-01T06:00:15.048Z,365.62
2019-06-01T06:01:14.829Z,371.25
2019-06-01T06:02:15.218Z,376.88
2019-06-01T06:03:16.073Z,371.25
2019-06-01T06:04:15.367Z,365.62
2019-06-01T06:05:14.684Z,388.12
2019-06-01T06:06:15.730Z,393.75
2019-06-01T06:07:14.801Z,416.25
2019-06-01T06:08:14.875Z,421.88
2019-06-01T06:09:14.805Z,427.50
2019-06-01T06:10:14.407Z,438.75
2019-06-01T06:11:14.930Z,433.12
2019-06-01T06:12:15.490Z,427.50
2019-06-01T06:13:15.282Z,427.50
2019-06-01T06:14:15.499Z,427.50
2019-06-01T06:15:15.619Z,438.75
2019-06-01T06:16:15.648Z,444.38
2019-06-01T06:17:17.064Z,450.00
2019-06-01T06:18:14.319Z,450.00
2019-06-01T06:19:17.816Z,450.00
2019-06-01T06:20:15.964Z,450.00
2019-06-01T06:21:14.297Z,450.00
2019-06-01T06:22:14.296Z,450.00
2019-06-01T06:23:14.335Z,444.38
2019-06-01T06:24:14.337Z,444.38
2019-06-01T06:25:14.426Z,444.38
2019-06-01T06:26:15.536Z,438.75
2019-06-01T06:27:14.522Z,444.38
2019-06-01T06:28:14.604Z,444.38
2019-06-01T06:29:14.706Z,438.75
2019-06-01T06:30:14.833Z,438.75
2019-06-01T06:31:15.039Z,438.75
2019-06-01T06:32:15.071Z,433.12
2019-06-01T06:33:15.196Z,416.25
2019-06-01T06:34:15.191Z,405.00
2019-06-01T06:35:15.285Z,427.50
2019-06-01T06:36:14.118Z,438.75
2019-06-01T06:37:14.145Z,444.38
2019-06-01T06:38:14.118Z,450.00
2019-06-01T06:39:14.128Z,455.62
2019-06-01T06:40:14.113Z,455.62
2019-06-01T06:41:14.069Z,450.00
2019-06-01T06:42:14.104Z,450.00
2019-06-01T06:43:22.131Z,450.00
2019-06-01T06:44:15.036Z,461.25
2019-06-01T06:45:14.566Z,461.25
2019-06-01T06:46:14.541Z,461.25
2019-06-01T06:47:14.711Z,466.88
2019-06-01T06:48:14.908Z,461.25
2019-06-01T06:49:15.006Z,478.12
2019-06-01T06:50:14.907Z,472.50
2019-06-01T06:51:15.090Z,483.75
2019-06-01T06:52:15.180Z,489.38
2019-06-01T06:53:25.418Z,483.75
2019-06-01T06:54:16.028Z,472.50
2019-06-01T06:55:13.914Z,472.50
2019-06-01T06:56:13.899Z,472.50
2019-06-01T06:57:13.906Z,461.25
2019-06-01T06:58:13.903Z,461.25
2019-06-01T06:59:13.904Z,461.25
2019-06-01T07:00:13.863Z,455.62
2019-06-01T07:01:13.858Z,461.25
2019-06-01T07:02:13.841Z,472.50
2019-06-01T07:03:13.870Z,472.50
2019-06-01T07:04:13.815Z,472.50
2019-06-01T07:05:13.809Z,461.25
2019-06-01T07:06:13.818Z,455.62
2019-06-01T07:07:13.776Z,455.62
2019-06-01T07:08:13.794Z,438.75
2019-06-01T07:09:13.752Z,455.62
2019-06-01T07:10:13.748Z,461.25
2019-06-01T07:11:13.742Z,466.88
2019-06-01T07:12:13.746Z,466.88
2019-06-01T07:13:13.728Z,466.88
2019-06-01T07:14:13.704Z,483.75
2019-06-01T07:15:13.701Z,495.00
2019-06-01T07:16:13.703Z,506.25
2019-06-01T07:17:15.803Z,511.88
2019-06-01T07:18:13.665Z,489.38
2019-06-01T07:19:13.645Z,500.62
2019-06-01T07:20:13.649Z,500.62
2019-06-01T07:21:13.632Z,495.00
2019-06-01T07:22:16.830Z,495.00
2019-06-01T07:23:13.615Z,495.00
2019-06-01T07:24:13.591Z,500.62
2019-06-01T07:25:13.600Z,523.12
2019-06-01T07:26:13.570Z,534.38
2019-06-01T07:27:13.564Z,607.50
2019-06-01T07:28:13.556Z,1524.38
2019-06-01T07:29:13.558Z,2621.25
2019-06-01T07:30:13.542Z,3060.00
2019-06-01T07:31:13.518Z,3026.25
2019-06-01T07:32:13.509Z,3183.75
2019-06-01T07:33:13.513Z,3228.75
2019-06-01T07:34:29.611Z,3110.62
2019-06-01T07:35:14.474Z,3082.50
2019-06-01T07:36:13.460Z,3150.00
2019-06-01T07:37:13.466Z,3155.62
2019-06-01T07:38:13.474Z,3144.38
2019-06-01T07:39:13.436Z,3178.12
2019-06-01T07:40:14.174Z,3133.12
2019-06-01T07:41:13.437Z,3121.88
2019-06-01T07:42:13.419Z,3133.12
2019-06-01T07:43:13.417Z,2970.00
2019-06-01T07:44:13.383Z,3015.00
2019-06-01T07:45:13.373Z,3138.75
2019-06-01T07:46:13.363Z,3172.50
2019-06-01T07:47:13.353Z,3245.62
2019-06-01T07:48:13.392Z,3211.88
2019-06-01T07:49:13.375Z,3060.00
2019-06-01T07:50:13.326Z,2891.25
2019-06-01T07:51:13.337Z,2908.12
2019-06-01T07:52:13.713Z,2981.25
2019-06-01T07:53:13.316Z,2958.75
2019-06-01T07:54:13.486Z,2756.25
2019-06-01T07:55:13.288Z,2795.62
2019-06-01T07:56:13.311Z,2941.88
2019-06-01T07:57:13.268Z,3031.88
2019-06-01T07:58:13.304Z,2621.25
2019-06-01T07:59:13.278Z,3178.12
2019-06-01T08:00:13.245Z,3150.00
2019-06-01T08:01:13.223Z,3009.38
2019-06-01T08:02:13.242Z,3043.12
2019-06-01T08:03:13.304Z,3234.38
2019-06-01T08:04:13.235Z,3206.25
2019-06-01T08:05:13.199Z,3200.62
2019-06-01T08:06:13.193Z,3256.88
2019-06-01T08:07:13.185Z,3206.25
2019-06-01T08:08:13.239Z,3262.50
2019-06-01T08:09:13.215Z,3200.62
2019-06-01T08:10:13.178Z,3110.62
2019-06-01T08:11:13.151Z,3161.25
2019-06-01T08:12:13.154Z,3166.88
2019-06-01T08:13:13.149Z,3082.50
2019-06-01T08:14:13.144Z,2885.62
2019-06-01T08:15:13.124Z,2750.62
2019-06-01T08:16:13.113Z,2936.25
2019-06-01T08:17:13.146Z,2998.12
2019-06-01T08:18:13.089Z,2773.12
2019-06-01T08:19:13.104Z,2823.75
2019-06-01T08:20:13.079Z,3003.75
2019-06-01T08:21:13.120Z,3088.12
2019-06-01T08:22:13.131Z,3138.75
2019-06-01T08:23:13.053Z,3082.50
2019-06-01T08:24:13.198Z,3020.62
2019-06-01T08:25:13.222Z,2986.88
2019-06-01T08:26:13.023Z,2840.62
2019-06-01T08:27:13.027Z,2958.75
2019-06-01T08:28:13.036Z,3200.62
2019-06-01T08:29:13.061Z,3223.12
2019-06-01T08:30:13.000Z,3121.88
2019-06-01T08:31:13.050Z,3076.88
2019-06-01T08:32:13.038Z,3020.62
2019-06-01T08:33:12.974Z,3110.62
2019-06-01T08:34:13.062Z,3093.75
2019-06-01T08:35:12.969Z,3048.75
2019-06-01T08:36:12.955Z,3015.00
2019-06-01T08:37:12.973Z,2975.62
2019-06-01T08:38:12.958Z,2874.38
2019-06-01T08:39:13.018Z,2435.62
2019-06-01T08:40:12.917Z,1912.50
2019-06-01T08:41:13.021Z,1912.50
2019-06-01T08:42:12.938Z,2345.62
2019-06-01T08:43:12.893Z,2790.00
2019-06-01T08:44:12.957Z,2913.75
2019-06-01T08:45:12.881Z,2981.25
2019-06-01T08:46:12.870Z,2958.75
2019-06-01T08:47:12.869Z,2868.75
2019-06-01T08:48:12.859Z,2970.00
2019-06-01T08:49:12.934Z,2981.25
2019-06-01T08:50:12.863Z,2806.88
2019-06-01T08:51:12.832Z,2739.38
2019-06-01T08:52:12.852Z,2795.62
2019-06-01T08:53:12.829Z,2857.50
2019-06-01T08:54:12.809Z,2925.00
2019-06-01T08:55:12.896Z,2919.38
2019-06-01T08:56:12.805Z,2806.88
2019-06-01T08:57:12.784Z,2795.62
2019-06-01T08:58:12.779Z,2863.12
2019-06-01T08:59:12.860Z,2818.12
2019-06-01T09:00:12.781Z,2885.62
2019-06-01T09:01:12.772Z,911.25
2019-06-01T09:02:12.761Z,3105.00
2019-06-01T09:03:12.741Z,2829.38
2019-06-01T09:04:12.738Z,2835.00
2019-06-01T09:05:23.816Z,2851.88
2019-06-01T09:06:13.719Z,2863.12
2019-06-01T09:07:12.732Z,2823.75
2019-06-01T09:08:12.725Z,2750.62
2019-06-01T09:09:12.731Z,2660.62
2019-06-01T09:10:12.727Z,2565.00
2019-06-01T09:11:12.704Z,2610.00
2019-06-01T09:12:12.707Z,2604.38
2019-06-01T09:13:12.681Z,2593.12
2019-06-01T09:14:12.728Z,2536.88
2019-06-01T09:15:12.846Z,2508.75
2019-06-01T09:16:12.666Z,2548.12
2019-06-01T09:17:12.646Z,2581.88
2019-06-01T09:18:12.682Z,2604.38
2019-06-01T09:19:12.641Z,2520.00
2019-06-01T09:20:12.649Z,2694.38
2019-06-01T09:21:12.619Z,2756.25
2019-06-01T09:22:12.639Z,2806.88
2019-06-01T09:23:12.599Z,2756.25
2019-06-01T09:24:12.604Z,2857.50
2019-06-01T09:25:12.634Z,2868.75
2019-06-01T09:26:12.597Z,2835.00
2019-06-01T09:27:12.621Z,2795.62
2019-06-01T09:28:12.567Z,2790.00
2019-06-01T09:29:12.554Z,2790.00
2019-06-01T09:30:12.560Z,2863.12
2019-06-01T09:31:12.550Z,2880.00
2019-06-01T09:32:12.555Z,2767.50
2019-06-01T09:33:12.526Z,2655.00
2019-06-01T09:34:12.526Z,2615.62
2019-06-01T09:35:12.528Z,2621.25
2019-06-01T09:36:12.513Z,2643.75
2019-06-01T09:37:12.510Z,2756.25
2019-06-01T09:38:12.484Z,2863.12
2019-06-01T09:39:12.488Z,2739.38
2019-06-01T09:40:12.826Z,2711.25
2019-06-01T09:41:12.498Z,2694.38
2019-06-01T09:42:12.501Z,2587.50
2019-06-01T09:43:12.449Z,2508.75
2019-06-01T09:44:12.442Z,2508.75
2019-06-01T09:45:12.460Z,2632.50
2019-06-01T09:46:12.444Z,2497.50
2019-06-01T09:47:12.551Z,2413.12
2019-06-01T09:48:12.445Z,2587.50
2019-06-01T09:49:12.411Z,2626.88
2019-06-01T09:50:12.415Z,2593.12
2019-06-01T09:51:12.396Z,2593.12
2019-06-01T09:52:12.937Z,2677.50
2019-06-01T09:53:12.387Z,2570.62
2019-06-01T09:54:12.390Z,2385.00
2019-06-01T09:55:12.356Z,2452.50
2019-06-01T09:56:12.370Z,2520.00
2019-06-01T09:57:12.344Z,2413.12
2019-06-01T09:58:12.398Z,2486.25
2019-06-01T09:59:12.390Z,2283.75
2019-06-01T10:00:12.325Z,2306.25
2019-06-01T10:01:12.857Z,2514.38
2019-06-01T10:02:12.334Z,2548.12
2019-06-01T10:03:12.359Z,2655.00
2019-06-01T10:04:12.288Z,2683.12
2019-06-01T10:05:12.314Z,2452.50
2019-06-01T10:06:14.232Z,2176.88
2019-06-01T10:07:12.290Z,2176.88
2019-06-01T10:08:12.256Z,2334.38
2019-06-01T10:09:12.245Z,2441.25
2019-06-01T10:10:12.250Z,2480.62
2019-06-01T10:11:12.256Z,2205.00
2019-06-01T10:12:12.253Z,1743.75
2019-06-01T10:13:12.368Z,1968.75
2019-06-01T10:14:12.253Z,2205.00
2019-06-01T10:15:12.206Z,2221.88
2019-06-01T10:16:12.217Z,2148.75
2019-06-01T10:17:12.234Z,2098.12
2019-06-01T10:18:12.176Z,1929.38
2019-06-01T10:19:12.164Z,1676.25
2019-06-01T10:20:12.156Z,1766.25
2019-06-01T10:21:12.169Z,1963.12
2019-06-01T10:22:12.169Z,1991.25
2019-06-01T10:23:12.173Z,2064.38
2019-06-01T10:24:12.130Z,2182.50
2019-06-01T10:25:12.118Z,2233.12
2019-06-01T10:26:12.134Z,2126.25
2019-06-01T10:27:12.102Z,1361.25
2019-06-01T10:28:12.093Z,511.88
2019-06-01T10:29:12.117Z,393.75
2019-06-01T10:30:12.070Z,365.62
2019-06-01T10:31:12.099Z,348.75
2019-06-01T10:32:12.140Z,337.50
2019-06-01T10:33:12.045Z,326.25
2019-06-01T10:34:12.036Z,320.62
2019-06-01T10:35:12.037Z,320.62
2019-06-01T10:36:20.552Z,315.00
2019-06-01T10:37:13.019Z,315.00
2019-06-01T10:38:12.026Z,315.00
2019-06-01T10:39:12.002Z,309.38
2019-06-01T10:40:11.990Z,309.38
2019-06-01T10:41:11.997Z,309.38
2019-06-01T10:42:11.999Z,309.38
2019-06-01T10:43:11.963Z,309.38
2019-06-01T10:44:11.945Z,309.38
2019-06-01T10:45:11.934Z,303.75
2019-06-01T10:46:11.959Z,309.38
2019-06-01T10:47:11.915Z,315.00
2019-06-01T10:48:11.915Z,309.38
2019-06-01T10:49:11.923Z,309.38
2019-06-01T10:50:11.893Z,309.38
2019-06-01T10:51:11.872Z,309.38
2019-06-01T10:52:11.902Z,309.38
2019-06-01T10:53:11.850Z,309.38
2019-06-01T10:54:11.850Z,309.38
2019-06-01T10:55:11.851Z,303.75
2019-06-01T10:56:11.824Z,303.75
2019-06-01T10:57:11.834Z,303.75
2019-06-01T10:58:11.813Z,303.75
2019-06-01T10:59:11.800Z,303.75
2019-06-01T11:00:11.781Z,303.75
2019-06-01T11:01:11.777Z,298.12
2019-06-01T11:02:11.789Z,298.12
2019-06-01T11:03:11.754Z,298.12
2019-06-01T11:04:11.737Z,298.12
2019-06-01T11:05:11.757Z,298.12
2019-06-01T11:06:11.727Z,298.12
2019-06-01T11:07:11.732Z,298.12
2019-06-01T11:08:11.705Z,298.12
2019-06-01T11:09:11.685Z,298.12
2019-06-01T11:10:11.701Z,298.12
2019-06-01T11:11:11.671Z,298.12
2019-06-01T11:12:11.674Z,298.12
2019-06-01T11:13:11.646Z,292.50
2019-06-01T11:14:11.632Z,298.12
2019-06-01T11:15:11.654Z,298.12
2019-06-01T11:16:11.614Z,298.12
2019-06-01T11:17:11.620Z,298.12
2019-06-01T11:18:11.609Z,298.12
2019-06-01T11:19:11.594Z,298.12
2019-06-01T11:20:11.569Z,298.12
2019-06-01T11:21:11.566Z,298.12
2019-06-01T11:22:11.564Z,298.12
2019-06-01T11:23:11.533Z,298.12
2019-06-01T11:24:11.800Z,292.50
2019-06-01T11:25:11.530Z,298.12
2019-06-01T11:26:11.501Z,292.50
2019-06-01T11:27:11.517Z,292.50
2019-06-01T11:28:11.500Z,292.50
2019-06-01T11:29:11.483Z,292.50
2019-06-01T11:30:11.485Z,292.50
2019-06-01T11:31:11.449Z,292.50
2019-06-01T11:32:11.462Z,292.50
2019-06-01T11:33:11.429Z,286.88
2019-06-01T11:34:11.418Z,286.88
2019-06-01T11:35:11.422Z,286.88
2019-06-01T11:36:11.412Z,286.88
2019-06-01T11:37:15.267Z,286.88
2019-06-01T11:38:11.411Z,286.88
2019-06-01T11:39:11.385Z,281.25
2019-06-01T11:40:11.370Z,281.25
2019-06-01T11:41:11.353Z,281.25
2019-06-01T11:42:11.364Z,281.25
2019-06-01T11:43:11.325Z,281.25
2019-06-01T11:44:11.321Z,275.62
2019-06-01T11:45:11.311Z,270.00
2019-06-01T11:46:11.297Z,270.00
2019-06-01T11:47:11.295Z,270.00
2019-06-01T11:48:11.293Z,270.00
2019-06-01T11:49:11.268Z,270.00
2019-06-01T11:50:11.268Z,270.00
2019-06-01T11:51:11.261Z,275.62
2019-06-01T11:52:11.242Z,275.62
2019-06-01T11:53:11.235Z,275.62
2019-06-01T11:54:11.221Z,275.62
2019-06-01T11:55:11.198Z,275.62
2019-06-01T11:56:11.348Z,275.62
2019-06-01T11:57:11.175Z,270.00
2019-06-01T11:58:11.374Z,270.00
2019-06-01T11:59:11.158Z,270.00
2019-06-01T12:00:11.149Z,270.00
2019-06-01T12:01:11.156Z,264.38
2019-06-01T12:02:11.131Z,264.38
2019-06-01T12:03:11.125Z,258.75
2019-06-01T12:04:11.098Z,253.12
2019-06-01T12:05:11.101Z,253.12
2019-06-01T12:06:11.076Z,253.12
2019-06-01T12:07:17.440Z,253.12
2019-06-01T12:08:12.072Z,247.50
2019-06-01T12:09:11.044Z,247.50
2019-06-01T12:10:11.041Z,253.12
2019-06-01T12:11:11.035Z,253.12
2019-06-01T12:12:11.016Z,247.50
2019-06-01T12:13:11.017Z,247.50
2019-06-01T12:14:10.998Z,241.88
2019-06-01T12:15:10.978Z,241.88
2019-06-01T12:16:10.977Z,241.88
2019-06-01T12:17:10.960Z,241.88
2019-06-01T12:18:10.962Z,241.88
2019-06-01T12:19:10.943Z,241.88
2019-06-01T12:20:10.937Z,236.25
2019-06-01T12:21:10.921Z,236.25
2019-06-01T12:22:10.911Z,236.25
2019-06-01T12:23:10.911Z,230.62
2019-06-01T12:24:10.919Z,230.62
2019-06-01T12:25:10.876Z,230.62
2019-06-01T12:26:10.870Z,225.00
2019-06-01T12:27:10.851Z,225.00
2019-06-01T12:28:10.844Z,219.38
2019-06-01T12:29:10.853Z,219.38
2019-06-01T12:30:10.819Z,219.38
2019-06-01T12:31:10.820Z,213.75
2019-06-01T12:32:10.803Z,213.75
2019-06-01T12:33:10.792Z,213.75
2019-06-01T12:34:10.797Z,208.12
2019-06-01T12:35:10.765Z,208.12
2019-06-01T12:36:10.758Z,208.12
2019-06-01T12:37:10.784Z,208.12